sensor_id;sensor_type;location;lat;lon;timestamp;temperature;humidity
19000;DHT22;9633;50.980;13.850;2023-02-26T00:01:30;-0.40;99.90
19000;DHT22;9633;50.980;13.850;2023-02-26T00:03:04;-0.40;99.90
19000;DHT22;9633;50.980;13.850;2023-02-26T00:04:37;-0.40;99.90
19000;DHT22;9633;50.980;13.850;2023-02-26T00:06:10;-0.40;99.90
19000;DHT22;9633;50.980;13.850;2023-02-26T00:07:43;-0.40;99.90
19000;DHT22;9633;50.980;13.850;2023-02-26T00:09:17;-0.40;99.90
19000;DHT22;9633;50.980;13.850;2023-02-26T00:10:50;-0.40;99.90
19000;DHT22;9633;50.980;13.850;2023-02-26T00:12:26;-0.40;99.90
19000;DHT22;9633;50.980;13.850;2023-02-26T00:13:59;-0.50;99.90
19000;DHT22;9633;50.980;13.850;2023-02-26T00:15:33;-0.50;99.90
19000;DHT22;9633;50.980;13.850;2023-02-26T00:17:24;-0.40;99.90
19000;DHT22;9633;50.980;13.850;2023-02-26T00:19:03;-0.50;99.90
19000;DHT22;9633;50.980;13.850;2023-02-26T00:20:37;-0.50;99.90
19000;DHT22;9633;50.980;13.850;2023-02-26T00:22:11;-0.50;99.90
19000;DHT22;9633;50.980;13.850;2023-02-26T00:23:44;-0.50;99.90
19000;DHT22;9633;50.980;13.850;2023-02-26T00:25:17;-0.50;99.90
19000;DHT22;9633;50.980;13.850;2023-02-26T00:26:50;-0.50;99.90
19000;DHT22;9633;50.980;13.850;2023-02-26T00:28:24;-0.50;99.90
19000;DHT22;9633;50.980;13.850;2023-02-26T00:29:58;-0.50;99.90
19000;DHT22;9633;50.980;13.850;2023-02-26T00:31:31;-0.50;99.90
19000;DHT22;9633;50.980;13.850;2023-02-26T00:33:05;-0.50;99.90
19000;DHT22;9633;50.980;13.850;2023-02-26T00:34:41;-0.50;99.90
19000;DHT22;9633;50.980;13.850;2023-02-26T00:36:20;-0.50;99.90
19000;DHT22;9633;50.980;13.850;2023-02-26T00:37:59;-0.50;99.90
19000;DHT22;9633;50.980;13.850;2023-02-26T00:39:39;-0.50;99.90
19000;DHT22;9633;50.980;13.850;2023-02-26T00:41:16;-0.50;99.90
19000;DHT22;9633;50.980;13.850;2023-02-26T00:42:50;-0.60;99.90
19000;DHT22;9633;50.980;13.850;2023-02-26T00:44:23;-0.60;99.90
19000;DHT22;9633;50.980;13.850;2023-02-26T00:46:05;-0.50;99.90
19000;DHT22;9633;50.980;13.850;2023-02-26T00:47:48;-0.50;99.90
19000;DHT22;9633;50.980;13.850;2023-02-26T00:49:27;-0.50;99.90
19000;DHT22;9633;50.980;13.850;2023-02-26T00:51:11;-0.50;99.90
19000;DHT22;9633;50.980;13.850;2023-02-26T00:52:53;-0.60;99.90
19000;DHT22;9633;50.980;13.850;2023-02-26T00:54:30;-0.60;99.90
19000;DHT22;9633;50.980;13.850;2023-02-26T00:56:04;-0.60;99.90
19000;DHT22;9633;50.980;13.850;2023-02-26T00:57:37;-0.60;99.90
19000;DHT22;9633;50.980;13.850;2023-02-26T00:59:10;-0.60;99.90
19000;DHT22;9633;50.980;13.850;2023-02-26T01:00:43;-0.60;99.90
19000;DHT22;9633;50.980;13.850;2023-02-26T01:02:15;-0.60;99.90
19000;DHT22;9633;50.980;13.850;2023-02-26T01:03:49;-0.60;99.90
19000;DHT22;9633;50.980;13.850;2023-02-26T01:05:21;-0.60;99.90
19000;DHT22;9633;50.980;13.850;2023-02-26T01:06:57;-0.60;99.90
19000;DHT22;9633;50.980;13.850;2023-02-26T01:08:33;-0.60;99.90
19000;DHT22;9633;50.980;13.850;2023-02-26T01:10:10;-0.60;99.90
19000;DHT22;9633;50.980;13.850;2023-02-26T01:11:43;-0.60;99.90
19000;DHT22;9633;50.980;13.850;2023-02-26T01:13:16;-0.60;99.90
19000;DHT22;9633;50.980;13.850;2023-02-26T01:14:50;-0.60;99.90
19000;DHT22;9633;50.980;13.850;2023-02-26T01:16:27;-0.70;99.90
19000;DHT22;9633;50.980;13.850;2023-02-26T01:18:03;-0.60;99.90
19000;DHT22;9633;50.980;13.850;2023-02-26T01:19:42;-0.70;99.90
19000;DHT22;9633;50.980;13.850;2023-02-26T01:21:20;-0.60;99.90
19000;DHT22;9633;50.980;13.850;2023-02-26T01:23:00;-0.60;99.90
19000;DHT22;9633;50.980;13.850;2023-02-26T01:24:35;-0.60;99.90
19000;DHT22;9633;50.980;13.850;2023-02-26T01:26:13;-0.50;99.90
19000;DHT22;9633;50.980;13.850;2023-02-26T01:27:48;-0.50;99.90
19000;DHT22;9633;50.980;13.850;2023-02-26T01:29:21;-0.50;99.90
19000;DHT22;9633;50.980;13.850;2023-02-26T01:30:58;-0.50;99.90
19000;DHT22;9633;50.980;13.850;2023-02-26T01:32:42;-0.50;99.90
19000;DHT22;9633;50.980;13.850;2023-02-26T01:34:20;-0.50;99.90
19000;DHT22;9633;50.980;13.850;2023-02-26T01:35:59;-0.50;99.90
19000;DHT22;9633;50.980;13.850;2023-02-26T01:37:40;-0.60;99.90
19000;DHT22;9633;50.980;13.850;2023-02-26T01:39:25;-0.50;99.90
19000;DHT22;9633;50.980;13.850;2023-02-26T01:41:18;-0.90;99.90
19000;DHT22;9633;50.980;13.850;2023-02-26T01:42:59;-0.60;99.90
19000;DHT22;9633;50.980;13.850;2023-02-26T01:44:40;-0.60;99.90
19000;DHT22;9633;50.980;13.850;2023-02-26T01:46:17;-0.50;99.90
19000;DHT22;9633;50.980;13.850;2023-02-26T01:47:59;-0.50;99.90
19000;DHT22;9633;50.980;13.850;2023-02-26T01:49:35;-0.50;99.90
19000;DHT22;9633;50.980;13.850;2023-02-26T01:51:09;-0.60;99.90
19000;DHT22;9633;50.980;13.850;2023-02-26T01:53:19;-0.50;99.90
19000;DHT22;9633;50.980;13.850;2023-02-26T01:54:53;-0.70;99.90
19000;DHT22;9633;50.980;13.850;2023-02-26T01:56:26;-0.50;99.90
19000;DHT22;9633;50.980;13.850;2023-02-26T01:58:00;-0.50;99.90
19000;DHT22;9633;50.980;13.850;2023-02-26T01:59:37;-0.50;99.90
19000;DHT22;9633;50.980;13.850;2023-02-26T02:01:10;-0.50;99.90
19000;DHT22;9633;50.980;13.850;2023-02-26T02:02:44;-0.50;99.90
19000;DHT22;9633;50.980;13.850;2023-02-26T02:04:17;-0.50;99.90
19000;DHT22;9633;50.980;13.850;2023-02-26T02:05:54;-0.40;99.90
19000;DHT22;9633;50.980;13.850;2023-02-26T02:07:29;-0.40;99.90
19000;DHT22;9633;50.980;13.850;2023-02-26T02:09:04;-0.50;99.90
19000;DHT22;9633;50.980;13.850;2023-02-26T02:10:41;-0.50;99.90
19000;DHT22;9633;50.980;13.850;2023-02-26T02:12:27;-0.50;99.90
19000;DHT22;9633;50.980;13.850;2023-02-26T02:14:11;-0.50;99.90
19000;DHT22;9633;50.980;13.850;2023-02-26T02:15:54;-0.50;99.90
19000;DHT22;9633;50.980;13.850;2023-02-26T02:17:40;-0.40;99.90
19000;DHT22;9633;50.980;13.850;2023-02-26T02:19:53;-0.50;99.90
19000;DHT22;9633;50.980;13.850;2023-02-26T02:23:29;-0.50;99.90
19000;DHT22;9633;50.980;13.850;2023-02-26T02:25:14;-0.50;99.90
19000;DHT22;9633;50.980;13.850;2023-02-26T02:27:00;-0.40;99.90
19000;DHT22;9633;50.980;13.850;2023-02-26T02:28:41;-0.40;99.90
19000;DHT22;9633;50.980;13.850;2023-02-26T02:30:26;-0.40;99.90
19000;DHT22;9633;50.980;13.850;2023-02-26T02:32:05;-0.40;99.90
19000;DHT22;9633;50.980;13.850;2023-02-26T02:33:42;-0.40;99.90
19000;DHT22;9633;50.980;13.850;2023-02-26T02:35:20;-0.30;99.90
19000;DHT22;9633;50.980;13.850;2023-02-26T02:36:56;-0.30;99.90
19000;DHT22;9633;50.980;13.850;2023-02-26T02:38:34;-0.40;99.90
19000;DHT22;9633;50.980;13.850;2023-02-26T02:40:12;-0.50;99.90
19000;DHT22;9633;50.980;13.850;2023-02-26T02:41:50;-0.40;99.90
19000;DHT22;9633;50.980;13.850;2023-02-26T02:43:26;-0.40;99.90
19000;DHT22;9633;50.980;13.850;2023-02-26T02:45:04;-0.30;99.90
19000;DHT22;9633;50.980;13.850;2023-02-26T02:46:39;-0.30;99.90
19000;DHT22;9633;50.980;13.850;2023-02-26T02:48:20;-0.40;99.90
19000;DHT22;9633;50.980;13.850;2023-02-26T02:50:02;-0.50;99.90
19000;DHT22;9633;50.980;13.850;2023-02-26T02:51:40;-0.30;99.90
19000;DHT22;9633;50.980;13.850;2023-02-26T02:53:17;-0.40;99.90
19000;DHT22;9633;50.980;13.850;2023-02-26T02:54:57;-0.30;99.90
19000;DHT22;9633;50.980;13.850;2023-02-26T02:56:33;-0.20;99.90
19000;DHT22;9633;50.980;13.850;2023-02-26T02:58:10;-0.30;99.90
19000;DHT22;9633;50.980;13.850;2023-02-26T02:59:47;-0.50;99.90
19000;DHT22;9633;50.980;13.850;2023-02-26T03:01:23;-0.30;99.90
19000;DHT22;9633;50.980;13.850;2023-02-26T03:03:02;-0.20;99.90
19000;DHT22;9633;50.980;13.850;2023-02-26T03:04:39;-0.20;99.90
19000;DHT22;9633;50.980;13.850;2023-02-26T03:06:12;-0.30;99.90
19000;DHT22;9633;50.980;13.850;2023-02-26T03:07:47;-0.20;99.90
19000;DHT22;9633;50.980;13.850;2023-02-26T03:09:20;-0.30;99.90
19000;DHT22;9633;50.980;13.850;2023-02-26T03:10:54;-0.30;99.90
19000;DHT22;9633;50.980;13.850;2023-02-26T03:12:30;-0.40;99.90
19000;DHT22;9633;50.980;13.850;2023-02-26T03:14:04;-0.30;99.90
19000;DHT22;9633;50.980;13.850;2023-02-26T03:15:55;-0.30;99.90
19000;DHT22;9633;50.980;13.850;2023-02-26T03:17:38;-0.30;99.90
19000;DHT22;9633;50.980;13.850;2023-02-26T03:19:17;-0.40;99.90
19000;DHT22;9633;50.980;13.850;2023-02-26T03:20:57;-0.40;99.90
19000;DHT22;9633;50.980;13.850;2023-02-26T03:22:40;-0.30;99.90
19000;DHT22;9633;50.980;13.850;2023-02-26T03:24:28;-0.20;99.90
19000;DHT22;9633;50.980;13.850;2023-02-26T03:26:09;-0.30;99.90
19000;DHT22;9633;50.980;13.850;2023-02-26T03:27:48;-0.30;99.90
19000;DHT22;9633;50.980;13.850;2023-02-26T03:29:29;-0.30;99.90
19000;DHT22;9633;50.980;13.850;2023-02-26T03:31:08;-0.20;99.90
19000;DHT22;9633;50.980;13.850;2023-02-26T03:32:51;-0.20;99.90
19000;DHT22;9633;50.980;13.850;2023-02-26T03:34:34;-0.20;99.90
19000;DHT22;9633;50.980;13.850;2023-02-26T03:36:18;-0.20;99.90
19000;DHT22;9633;50.980;13.850;2023-02-26T03:38:06;-0.20;99.90
19000;DHT22;9633;50.980;13.850;2023-02-26T03:39:44;-0.30;99.90
19000;DHT22;9633;50.980;13.850;2023-02-26T03:41:23;-0.30;99.90
19000;DHT22;9633;50.980;13.850;2023-02-26T03:43:01;-0.20;99.90
19000;DHT22;9633;50.980;13.850;2023-02-26T03:44:38;-0.20;99.90
19000;DHT22;9633;50.980;13.850;2023-02-26T03:46:14;-0.20;99.90
19000;DHT22;9633;50.980;13.850;2023-02-26T03:47:50;-0.30;99.90
19000;DHT22;9633;50.980;13.850;2023-02-26T03:49:30;-0.20;99.90
19000;DHT22;9633;50.980;13.850;2023-02-26T03:51:09;-0.30;99.90
19000;DHT22;9633;50.980;13.850;2023-02-26T03:53:08;-0.20;99.90
19000;DHT22;9633;50.980;13.850;2023-02-26T03:54:52;-0.20;99.90
19000;DHT22;9633;50.980;13.850;2023-02-26T03:56:48;-0.20;99.90
19000;DHT22;9633;50.980;13.850;2023-02-26T03:58:47;-0.20;99.90
19000;DHT22;9633;50.980;13.850;2023-02-26T04:00:27;-0.30;99.90
19000;DHT22;9633;50.980;13.850;2023-02-26T04:02:09;-0.20;99.90
19000;DHT22;9633;50.980;13.850;2023-02-26T04:03:46;-0.20;99.90
19000;DHT22;9633;50.980;13.850;2023-02-26T04:05:24;-0.30;99.90
19000;DHT22;9633;50.980;13.850;2023-02-26T04:06:58;-0.20;99.90
19000;DHT22;9633;50.980;13.850;2023-02-26T04:08:33;-0.20;99.90
19000;DHT22;9633;50.980;13.850;2023-02-26T04:10:07;-0.30;99.90
19000;DHT22;9633;50.980;13.850;2023-02-26T04:11:42;-0.20;99.90
19000;DHT22;9633;50.980;13.850;2023-02-26T04:13:17;-0.20;99.90
19000;DHT22;9633;50.980;13.850;2023-02-26T04:14:50;-0.30;99.90
19000;DHT22;9633;50.980;13.850;2023-02-26T04:16:23;-0.20;99.90
19000;DHT22;9633;50.980;13.850;2023-02-26T04:17:57;-0.30;99.90
19000;DHT22;9633;50.980;13.850;2023-02-26T04:19:31;-0.30;99.90
19000;DHT22;9633;50.980;13.850;2023-02-26T04:21:05;-0.20;99.90
19000;DHT22;9633;50.980;13.850;2023-02-26T04:22:38;-0.30;99.90
19000;DHT22;9633;50.980;13.850;2023-02-26T04:24:13;-0.30;99.90
19000;DHT22;9633;50.980;13.850;2023-02-26T04:25:47;-0.30;99.90
19000;DHT22;9633;50.980;13.850;2023-02-26T04:27:22;-0.30;99.90
19000;DHT22;9633;50.980;13.850;2023-02-26T04:28:55;-0.30;99.90
19000;DHT22;9633;50.980;13.850;2023-02-26T04:30:28;-0.30;99.90
19000;DHT22;9633;50.980;13.850;2023-02-26T04:32:01;-0.30;99.90
19000;DHT22;9633;50.980;13.850;2023-02-26T04:33:35;-0.30;99.90
19000;DHT22;9633;50.980;13.850;2023-02-26T04:35:08;-0.30;99.90
19000;DHT22;9633;50.980;13.850;2023-02-26T04:36:42;-0.30;99.90
19000;DHT22;9633;50.980;13.850;2023-02-26T04:38:15;-0.30;99.90
19000;DHT22;9633;50.980;13.850;2023-02-26T04:39:49;-0.30;99.90
19000;DHT22;9633;50.980;13.850;2023-02-26T04:41:22;-0.30;99.90
19000;DHT22;9633;50.980;13.850;2023-02-26T04:42:56;-0.30;99.90
19000;DHT22;9633;50.980;13.850;2023-02-26T04:44:31;-0.30;99.90
19000;DHT22;9633;50.980;13.850;2023-02-26T04:46:05;-0.30;99.90
19000;DHT22;9633;50.980;13.850;2023-02-26T04:47:40;-0.20;99.90
19000;DHT22;9633;50.980;13.850;2023-02-26T04:49:13;-0.20;99.90
19000;DHT22;9633;50.980;13.850;2023-02-26T04:50:48;-0.30;99.90
19000;DHT22;9633;50.980;13.850;2023-02-26T04:52:21;-0.30;99.90
19000;DHT22;9633;50.980;13.850;2023-02-26T04:53:54;-0.20;99.90
19000;DHT22;9633;50.980;13.850;2023-02-26T04:55:28;-0.30;99.90
19000;DHT22;9633;50.980;13.850;2023-02-26T04:57:01;-0.30;99.90
19000;DHT22;9633;50.980;13.850;2023-02-26T04:58:34;-0.20;99.90
19000;DHT22;9633;50.980;13.850;2023-02-26T05:00:13;-0.20;99.90
19000;DHT22;9633;50.980;13.850;2023-02-26T05:01:46;-0.20;99.90
19000;DHT22;9633;50.980;13.850;2023-02-26T05:03:19;-0.20;99.90
19000;DHT22;9633;50.980;13.850;2023-02-26T05:04:52;-0.20;99.90
19000;DHT22;9633;50.980;13.850;2023-02-26T05:06:24;-0.20;99.90
19000;DHT22;9633;50.980;13.850;2023-02-26T05:07:58;-0.20;99.90
19000;DHT22;9633;50.980;13.850;2023-02-26T05:09:31;-0.10;99.90
19000;DHT22;9633;50.980;13.850;2023-02-26T05:11:05;-0.10;99.90
19000;DHT22;9633;50.980;13.850;2023-02-26T05:12:38;-0.20;99.90
19000;DHT22;9633;50.980;13.850;2023-02-26T05:14:10;-0.10;99.90
19000;DHT22;9633;50.980;13.850;2023-02-26T05:15:45;-0.20;99.90
19000;DHT22;9633;50.980;13.850;2023-02-26T05:17:18;-0.20;99.90
19000;DHT22;9633;50.980;13.850;2023-02-26T05:18:51;-0.10;99.90
19000;DHT22;9633;50.980;13.850;2023-02-26T05:20:24;-0.20;99.90
19000;DHT22;9633;50.980;13.850;2023-02-26T05:21:57;-0.20;99.90
19000;DHT22;9633;50.980;13.850;2023-02-26T05:23:29;-0.10;99.90
19000;DHT22;9633;50.980;13.850;2023-02-26T05:25:03;-0.20;99.90
19000;DHT22;9633;50.980;13.850;2023-02-26T05:26:38;-0.20;99.90
19000;DHT22;9633;50.980;13.850;2023-02-26T05:28:11;-0.20;99.90
19000;DHT22;9633;50.980;13.850;2023-02-26T05:29:44;-0.30;99.90
19000;DHT22;9633;50.980;13.850;2023-02-26T05:31:18;-0.20;99.90
19000;DHT22;9633;50.980;13.850;2023-02-26T05:32:51;-0.20;99.90
19000;DHT22;9633;50.980;13.850;2023-02-26T05:34:25;-0.20;99.90
19000;DHT22;9633;50.980;13.850;2023-02-26T05:35:58;-0.10;99.90
19000;DHT22;9633;50.980;13.850;2023-02-26T05:37:31;-0.20;99.90
19000;DHT22;9633;50.980;13.850;2023-02-26T05:39:04;-0.20;99.90
19000;DHT22;9633;50.980;13.850;2023-02-26T05:40:37;0.10;99.90
19000;DHT22;9633;50.980;13.850;2023-02-26T05:42:12;-0.20;99.90
19000;DHT22;9633;50.980;13.850;2023-02-26T05:43:45;-0.10;99.90
19000;DHT22;9633;50.980;13.850;2023-02-26T05:45:18;-0.20;99.90
19000;DHT22;9633;50.980;13.850;2023-02-26T05:46:51;-0.20;99.90
19000;DHT22;9633;50.980;13.850;2023-02-26T05:48:25;-0.10;99.90
19000;DHT22;9633;50.980;13.850;2023-02-26T05:49:58;-0.50;99.90
19000;DHT22;9633;50.980;13.850;2023-02-26T05:51:31;-0.20;99.90
19000;DHT22;9633;50.980;13.850;2023-02-26T05:53:04;-0.20;99.90
19000;DHT22;9633;50.980;13.850;2023-02-26T05:54:37;-0.20;99.90
19000;DHT22;9633;50.980;13.850;2023-02-26T05:56:10;-0.20;99.90
19000;DHT22;9633;50.980;13.850;2023-02-26T05:57:45;-0.20;99.90
19000;DHT22;9633;50.980;13.850;2023-02-26T05:59:18;-0.20;99.90
19000;DHT22;9633;50.980;13.850;2023-02-26T06:00:51;-0.20;99.90
19000;DHT22;9633;50.980;13.850;2023-02-26T06:02:23;-0.20;99.90
19000;DHT22;9633;50.980;13.850;2023-02-26T06:03:56;-0.20;99.90
19000;DHT22;9633;50.980;13.850;2023-02-26T06:05:29;-0.20;99.90
19000;DHT22;9633;50.980;13.850;2023-02-26T06:07:03;-0.20;99.90
19000;DHT22;9633;50.980;13.850;2023-02-26T06:08:36;-0.20;99.90
19000;DHT22;9633;50.980;13.850;2023-02-26T06:10:10;-0.20;99.90
19000;DHT22;9633;50.980;13.850;2023-02-26T06:11:43;-0.20;99.90
19000;DHT22;9633;50.980;13.850;2023-02-26T06:13:18;-0.20;99.90
19000;DHT22;9633;50.980;13.850;2023-02-26T06:14:51;-0.20;99.90
19000;DHT22;9633;50.980;13.850;2023-02-26T06:16:25;-0.20;99.90
19000;DHT22;9633;50.980;13.850;2023-02-26T06:17:59;-0.20;99.90
19000;DHT22;9633;50.980;13.850;2023-02-26T06:19:32;-0.20;99.90
19000;DHT22;9633;50.980;13.850;2023-02-26T06:21:05;-0.20;99.90
19000;DHT22;9633;50.980;13.850;2023-02-26T06:22:38;-0.20;99.90
19000;DHT22;9633;50.980;13.850;2023-02-26T06:24:11;-0.20;99.90
19000;DHT22;9633;50.980;13.850;2023-02-26T06:25:44;-0.20;99.90
19000;DHT22;9633;50.980;13.850;2023-02-26T06:27:17;-0.20;99.90
19000;DHT22;9633;50.980;13.850;2023-02-26T06:28:52;-0.20;99.90
19000;DHT22;9633;50.980;13.850;2023-02-26T06:30:25;-0.20;99.90
19000;DHT22;9633;50.980;13.850;2023-02-26T06:31:58;-0.20;99.90
19000;DHT22;9633;50.980;13.850;2023-02-26T06:33:31;-0.20;99.90
19000;DHT22;9633;50.980;13.850;2023-02-26T06:35:05;-0.20;99.90
19000;DHT22;9633;50.980;13.850;2023-02-26T06:36:39;-0.20;99.90
19000;DHT22;9633;50.980;13.850;2023-02-26T06:38:11;-0.20;99.90
19000;DHT22;9633;50.980;13.850;2023-02-26T06:39:44;-0.10;99.90
19000;DHT22;9633;50.980;13.850;2023-02-26T06:41:17;0.00;99.90
19000;DHT22;9633;50.980;13.850;2023-02-26T06:42:51;0.00;99.90
19000;DHT22;9633;50.980;13.850;2023-02-26T06:44:25;-0.10;99.90
19000;DHT22;9633;50.980;13.850;2023-02-26T06:45:59;-0.10;99.90
19000;DHT22;9633;50.980;13.850;2023-02-26T06:47:32;-0.10;99.90
19000;DHT22;9633;50.980;13.850;2023-02-26T06:49:05;-0.10;99.90
19000;DHT22;9633;50.980;13.850;2023-02-26T06:50:39;-0.10;99.90
19000;DHT22;9633;50.980;13.850;2023-02-26T06:52:12;-0.10;99.90
19000;DHT22;9633;50.980;13.850;2023-02-26T06:53:45;-0.10;99.90
19000;DHT22;9633;50.980;13.850;2023-02-26T06:55:18;-0.10;99.90
19000;DHT22;9633;50.980;13.850;2023-02-26T06:56:52;-0.20;99.90
19000;DHT22;9633;50.980;13.850;2023-02-26T06:58:28;0.00;99.90
19000;DHT22;9633;50.980;13.850;2023-02-26T07:00:04;0.00;99.90
19000;DHT22;9633;50.980;13.850;2023-02-26T07:01:38;0.00;99.90
19000;DHT22;9633;50.980;13.850;2023-02-26T07:03:14;0.00;99.90
19000;DHT22;9633;50.980;13.850;2023-02-26T07:04:48;0.10;99.90
19000;DHT22;9633;50.980;13.850;2023-02-26T07:06:21;0.00;99.90
19000;DHT22;9633;50.980;13.850;2023-02-26T07:08:09;0.10;99.90
19000;DHT22;9633;50.980;13.850;2023-02-26T07:09:42;0.10;99.90
19000;DHT22;9633;50.980;13.850;2023-02-26T07:11:16;0.10;99.90
19000;DHT22;9633;50.980;13.850;2023-02-26T07:12:50;0.10;99.90
19000;DHT22;9633;50.980;13.850;2023-02-26T07:14:23;0.10;99.90
19000;DHT22;9633;50.980;13.850;2023-02-26T07:15:57;0.10;99.90
19000;DHT22;9633;50.980;13.850;2023-02-26T07:17:31;0.00;99.90
19000;DHT22;9633;50.980;13.850;2023-02-26T07:19:04;0.10;99.90
19000;DHT22;9633;50.980;13.850;2023-02-26T07:20:37;0.20;99.90
19000;DHT22;9633;50.980;13.850;2023-02-26T07:22:11;0.10;99.90
19000;DHT22;9633;50.980;13.850;2023-02-26T07:23:44;0.20;99.90
19000;DHT22;9633;50.980;13.850;2023-02-26T07:25:17;0.20;99.90
19000;DHT22;9633;50.980;13.850;2023-02-26T07:26:51;0.20;99.90
19000;DHT22;9633;50.980;13.850;2023-02-26T07:28:24;0.30;99.90
19000;DHT22;9633;50.980;13.850;2023-02-26T07:29:58;0.30;99.90
19000;DHT22;9633;50.980;13.850;2023-02-26T07:31:31;0.20;99.90
19000;DHT22;9633;50.980;13.850;2023-02-26T07:33:05;0.20;99.90
19000;DHT22;9633;50.980;13.850;2023-02-26T07:34:38;0.30;99.90
19000;DHT22;9633;50.980;13.850;2023-02-26T07:36:11;0.30;99.90
19000;DHT22;9633;50.980;13.850;2023-02-26T07:37:44;0.20;99.90
19000;DHT22;9633;50.980;13.850;2023-02-26T07:39:17;0.30;99.90
19000;DHT22;9633;50.980;13.850;2023-02-26T07:40:53;0.30;99.90
19000;DHT22;9633;50.980;13.850;2023-02-26T07:42:27;0.30;99.90
19000;DHT22;9633;50.980;13.850;2023-02-26T07:44:00;0.20;99.90
19000;DHT22;9633;50.980;13.850;2023-02-26T07:45:33;0.30;99.90
19000;DHT22;9633;50.980;13.850;2023-02-26T07:47:09;0.40;99.90
19000;DHT22;9633;50.980;13.850;2023-02-26T07:48:43;0.20;99.90
19000;DHT22;9633;50.980;13.850;2023-02-26T07:50:16;0.20;99.90
19000;DHT22;9633;50.980;13.850;2023-02-26T07:51:49;0.30;99.90
19000;DHT22;9633;50.980;13.850;2023-02-26T07:53:22;0.30;99.90
19000;DHT22;9633;50.980;13.850;2023-02-26T07:54:55;0.30;99.90
19000;DHT22;9633;50.980;13.850;2023-02-26T07:56:29;0.40;99.90
19000;DHT22;9633;50.980;13.850;2023-02-26T07:58:02;0.40;99.90
19000;DHT22;9633;50.980;13.850;2023-02-26T07:59:35;0.30;99.90
19000;DHT22;9633;50.980;13.850;2023-02-26T08:01:08;0.30;99.90
19000;DHT22;9633;50.980;13.850;2023-02-26T08:02:43;0.30;99.90
19000;DHT22;9633;50.980;13.850;2023-02-26T08:04:16;0.50;99.90
19000;DHT22;9633;50.980;13.850;2023-02-26T08:05:49;0.40;99.90
19000;DHT22;9633;50.980;13.850;2023-02-26T08:07:23;0.40;99.90
19000;DHT22;9633;50.980;13.850;2023-02-26T08:08:56;0.40;99.90
19000;DHT22;9633;50.980;13.850;2023-02-26T08:10:29;0.40;99.90
19000;DHT22;9633;50.980;13.850;2023-02-26T08:12:03;0.40;99.90
19000;DHT22;9633;50.980;13.850;2023-02-26T08:13:36;0.40;99.90
19000;DHT22;9633;50.980;13.850;2023-02-26T08:15:10;0.40;99.90
19000;DHT22;9633;50.980;13.850;2023-02-26T08:16:45;0.50;99.90
19000;DHT22;9633;50.980;13.850;2023-02-26T08:18:19;0.50;99.90
19000;DHT22;9633;50.980;13.850;2023-02-26T08:19:52;0.50;99.90
19000;DHT22;9633;50.980;13.850;2023-02-26T08:21:25;0.50;99.90
19000;DHT22;9633;50.980;13.850;2023-02-26T08:22:58;0.50;99.90
19000;DHT22;9633;50.980;13.850;2023-02-26T08:24:32;0.60;99.90
19000;DHT22;9633;50.980;13.850;2023-02-26T08:26:06;0.50;99.90
19000;DHT22;9633;50.980;13.850;2023-02-26T08:27:40;0.50;99.90
19000;DHT22;9633;50.980;13.850;2023-02-26T08:29:13;0.40;99.90
19000;DHT22;9633;50.980;13.850;2023-02-26T08:30:47;0.50;99.90
19000;DHT22;9633;50.980;13.850;2023-02-26T08:32:20;0.40;99.90
19000;DHT22;9633;50.980;13.850;2023-02-26T08:33:56;0.40;99.90
19000;DHT22;9633;50.980;13.850;2023-02-26T08:35:29;0.40;99.90
19000;DHT22;9633;50.980;13.850;2023-02-26T08:37:02;0.40;99.90
19000;DHT22;9633;50.980;13.850;2023-02-26T08:38:36;0.40;99.90
19000;DHT22;9633;50.980;13.850;2023-02-26T08:40:10;0.50;99.90
19000;DHT22;9633;50.980;13.850;2023-02-26T08:41:46;0.50;99.90
19000;DHT22;9633;50.980;13.850;2023-02-26T08:43:19;0.50;99.90
19000;DHT22;9633;50.980;13.850;2023-02-26T08:44:52;0.60;99.90
19000;DHT22;9633;50.980;13.850;2023-02-26T08:46:26;0.60;99.90
19000;DHT22;9633;50.980;13.850;2023-02-26T08:48:00;0.60;99.90
19000;DHT22;9633;50.980;13.850;2023-02-26T08:49:34;0.60;99.90
19000;DHT22;9633;50.980;13.850;2023-02-26T08:51:06;0.60;99.90
19000;DHT22;9633;50.980;13.850;2023-02-26T08:52:40;0.60;99.90
19000;DHT22;9633;50.980;13.850;2023-02-26T08:54:13;0.40;99.90
19000;DHT22;9633;50.980;13.850;2023-02-26T08:55:47;0.20;99.90
19000;DHT22;9633;50.980;13.850;2023-02-26T08:57:20;0.30;99.90
19000;DHT22;9633;50.980;13.850;2023-02-26T08:58:53;0.20;99.90
19000;DHT22;9633;50.980;13.850;2023-02-26T09:00:26;0.30;99.90
19000;DHT22;9633;50.980;13.850;2023-02-26T09:02:00;0.30;99.90
19000;DHT22;9633;50.980;13.850;2023-02-26T09:03:33;0.30;99.90
19000;DHT22;9633;50.980;13.850;2023-02-26T09:05:08;0.40;99.90
19000;DHT22;9633;50.980;13.850;2023-02-26T09:06:42;0.30;99.90
19000;DHT22;9633;50.980;13.850;2023-02-26T09:08:16;0.40;99.90
19000;DHT22;9633;50.980;13.850;2023-02-26T09:09:51;0.40;99.90
19000;DHT22;9633;50.980;13.850;2023-02-26T09:11:24;0.40;99.90
19000;DHT22;9633;50.980;13.850;2023-02-26T09:12:58;0.30;99.90
19000;DHT22;9633;50.980;13.850;2023-02-26T09:14:31;0.40;99.90
19000;DHT22;9633;50.980;13.850;2023-02-26T09:16:05;0.40;99.90
19000;DHT22;9633;50.980;13.850;2023-02-26T09:17:38;0.50;99.90
19000;DHT22;9633;50.980;13.850;2023-02-26T09:19:11;0.40;99.90
19000;DHT22;9633;50.980;13.850;2023-02-26T09:20:45;0.40;99.90
19000;DHT22;9633;50.980;13.850;2023-02-26T09:22:18;0.40;99.90
19000;DHT22;9633;50.980;13.850;2023-02-26T09:23:51;0.50;99.90
19000;DHT22;9633;50.980;13.850;2023-02-26T09:25:24;0.50;99.90
19000;DHT22;9633;50.980;13.850;2023-02-26T09:26:57;0.50;99.90
19000;DHT22;9633;50.980;13.850;2023-02-26T09:28:31;0.50;99.90
19000;DHT22;9633;50.980;13.850;2023-02-26T09:30:05;0.60;99.90
19000;DHT22;9633;50.980;13.850;2023-02-26T09:31:39;0.50;99.90
19000;DHT22;9633;50.980;13.850;2023-02-26T09:33:12;0.50;99.90
19000;DHT22;9633;50.980;13.850;2023-02-26T09:34:45;0.60;99.90
19000;DHT22;9633;50.980;13.850;2023-02-26T09:36:20;0.60;99.90
19000;DHT22;9633;50.980;13.850;2023-02-26T09:37:53;0.70;99.90
19000;DHT22;9633;50.980;13.850;2023-02-26T09:39:26;0.80;99.90
19000;DHT22;9633;50.980;13.850;2023-02-26T09:41:01;0.90;99.90
19000;DHT22;9633;50.980;13.850;2023-02-26T09:42:49;0.90;99.90
19000;DHT22;9633;50.980;13.850;2023-02-26T09:44:26;1.00;99.90
19000;DHT22;9633;50.980;13.850;2023-02-26T09:46:03;1.00;99.90
19000;DHT22;9633;50.980;13.850;2023-02-26T09:47:41;1.10;99.90
19000;DHT22;9633;50.980;13.850;2023-02-26T09:49:26;1.10;99.90
19000;DHT22;9633;50.980;13.850;2023-02-26T09:51:00;1.30;99.90
19000;DHT22;9633;50.980;13.850;2023-02-26T09:52:38;1.30;99.90
19000;DHT22;9633;50.980;13.850;2023-02-26T09:54:16;1.30;99.90
19000;DHT22;9633;50.980;13.850;2023-02-26T09:55:52;1.30;99.90
19000;DHT22;9633;50.980;13.850;2023-02-26T09:57:29;1.40;99.90
19000;DHT22;9633;50.980;13.850;2023-02-26T09:59:03;1.50;99.90
19000;DHT22;9633;50.980;13.850;2023-02-26T10:00:40;1.50;99.90
19000;DHT22;9633;50.980;13.850;2023-02-26T10:02:21;0.90;99.90
19000;DHT22;9633;50.980;13.850;2023-02-26T10:04:05;1.20;99.90
19000;DHT22;9633;50.980;13.850;2023-02-26T10:05:49;1.30;99.90
19000;DHT22;9633;50.980;13.850;2023-02-26T10:07:31;1.30;99.90
19000;DHT22;9633;50.980;13.850;2023-02-26T10:09:28;1.40;99.90
19000;DHT22;9633;50.980;13.850;2023-02-26T10:11:07;1.50;99.90